Time;durP1;ratioP1;P1;durP2;ratioP2;P2;SDS_P1;SDS_P2;PMS_P1;PMS_P2;Temp;Humidity;BMP_temperature;BMP_pressure;BME280_temperature;BME280_humidity;BME280_pressure;Samples;Min_cycle;Max_cycle;Signal;HPM_P1;HPM_P2
2021/08/20 00:00:15;;;;;;;22.13;3.60;;;;;;;14.53;77.71;99536.72;5063337;28;20029;-69
2021/08/20 00:02:41;;;;;;;27.95;4.80;;;;;;;14.51;77.97;99534.16;5063165;28;20128;-69
2021/08/20 00:05:07;;;;;;;12.55;3.50;;;;;;;14.52;78.00;99528.03;5063153;28;20069;-68
2021/08/20 00:07:33;;;;;;;17.88;3.83;;;;;;;14.44;77.72;99512.66;5063791;28;20028;-69
2021/08/20 00:09:59;;;;;;;21.38;4.43;;;;;;;14.51;77.79;99528.94;5066681;28;20106;-68
2021/08/20 00:12:25;;;;;;;18.67;3.53;;;;;;;14.50;77.60;99522.88;5067021;28;20055;-69
2021/08/20 00:14:51;;;;;;;24.40;4.32;;;;;;;14.50;77.71;99524.66;5067142;28;20032;-69
2021/08/20 00:17:16;;;;;;;13.10;3.28;;;;;;;14.47;77.79;99524.75;5066748;28;20056;-69
2021/08/20 00:19:42;;;;;;;21.02;3.72;;;;;;;14.47;77.90;99522.16;5066692;28;20466;-69
2021/08/20 00:22:08;;;;;;;16.83;3.50;;;;;;;14.45;77.80;99524.81;5066502;28;20029;-68
2021/08/20 00:24:35;;;;;;;12.38;2.95;;;;;;;14.46;77.80;99517.81;5066852;28;20033;-68
2021/08/20 00:27:01;;;;;;;13.27;4.10;;;;;;;14.47;77.91;99530.00;5066200;28;20032;-68
2021/08/20 00:29:26;;;;;;;16.20;3.40;;;;;;;14.47;78.10;99525.59;5066257;28;20025;-68
2021/08/20 00:31:52;;;;;;;19.08;3.58;;;;;;;14.44;77.98;99520.50;5066236;28;20017;-68
2021/08/20 00:34:17;;;;;;;20.73;3.50;;;;;;;14.49;77.93;99525.53;5066344;28;20025;-68
2021/08/20 00:36:43;;;;;;;16.80;3.85;;;;;;;14.50;77.64;99529.88;5066184;28;20089;-68
2021/08/20 00:39:08;;;;;;;17.45;4.80;;;;;;;14.47;77.66;99519.53;5066312;28;20025;-68
2021/08/20 00:41:34;;;;;;;17.95;3.53;;;;;;;14.52;77.75;99524.59;5066246;28;20024;-68
2021/08/20 00:43:59;;;;;;;15.63;3.67;;;;;;;14.57;77.60;99527.88;5065984;28;20039;-68
2021/08/20 00:46:25;;;;;;;13.93;3.25;;;;;;;14.55;77.61;99530.53;5065992;28;20032;-68
2021/08/20 00:48:50;;;;;;;17.88;2.88;;;;;;;14.55;77.76;99529.69;5066034;28;20104;-68
2021/08/20 00:51:19;;;;;;;16.42;3.20;;;;;;;14.56;77.58;99531.38;5066099;28;20021;-68
2021/08/20 00:53:46;;;;;;;13.50;3.50;;;;;;;14.55;77.67;99535.78;5066265;28;20024;-68
2021/08/20 00:56:12;;;;;;;11.82;3.30;;;;;;;14.55;78.04;99530.53;5065962;28;20024;-69
2021/08/20 00:58:40;;;;;;;14.88;3.65;;;;;;;14.58;77.93;99527.81;5065955;28;20048;-68
2021/08/20 01:01:06;;;;;;;21.30;3.83;;;;;;;14.62;77.63;99538.97;5065856;28;20085;-69
2021/08/20 01:03:32;;;;;;;20.73;3.63;;;;;;;14.61;77.45;99526.84;5065784;28;20029;-68
2021/08/20 01:05:58;;;;;;;12.48;3.10;;;;;;;14.64;77.36;99534.53;5065797;28;20264;-68
2021/08/20 01:08:25;;;;;;;16.15;3.22;;;;;;;14.69;77.08;99537.84;5065334;28;20048;-68
2021/08/20 01:10:51;;;;;;;12.43;2.75;;;;;;;14.68;77.30;99537.91;5065799;28;20043;-68
2021/08/20 01:13:18;;;;;;;12.60;2.97;;;;;;;14.69;76.79;99545.66;5065653;28;20237;-68
2021/08/20 01:15:44;;;;;;;8.52;2.75;;;;;;;14.65;76.74;99535.41;5065570;28;20059;-69
2021/08/20 01:18:10;;;;;;;15.73;3.67;;;;;;;14.68;76.64;99549.19;5065404;28;20025;-68
2021/08/20 01:20:35;;;;;;;13.00;2.95;;;;;;;14.67;76.41;99546.63;5065582;28;20536;-68
2021/08/20 01:23:03;;;;;;;14.30;3.35;;;;;;;14.66;76.19;99543.19;5065433;28;20021;-68
2021/08/20 01:25:29;;;;;;;13.25;3.05;;;;;;;14.69;75.90;99547.44;5065430;28;20163;-69
2021/08/20 01:28:08;;;;;;;10.48;2.63;;;;;;;14.69;76.03;99550.03;5065163;28;20068;-68
2021/08/20 01:30:34;;;;;;;10.75;2.40;;;;;;;14.69;75.67;99548.28;5065401;28;20024;-68
2021/08/20 01:32:59;;;;;;;9.25;2.65;;;;;;;14.69;75.70;99548.28;5064212;28;20489;-68
2021/08/20 01:35:25;;;;;;;11.80;3.00;;;;;;;14.70;75.74;99551.72;5064306;28;20102;-69
2021/08/20 01:37:50;;;;;;;17.27;3.08;;;;;;;14.70;75.72;99552.59;5064555;28;20040;-68
2021/08/20 01:40:15;;;;;;;11.93;3.10;;;;;;;14.70;75.81;99557.81;5063584;28;20021;-68
2021/08/20 01:42:41;;;;;;;20.80;4.18;;;;;;;14.69;75.74;99556.13;5065104;28;20036;-68
2021/08/20 01:45:07;;;;;;;17.02;3.08;;;;;;;14.63;75.71;99551.13;5065114;28;20036;-68
2021/08/20 01:47:32;;;;;;;14.35;2.20;;;;;;;14.66;75.79;99551.03;5064893;28;20025;-68
2021/08/20 01:49:57;;;;;;;15.30;3.05;;;;;;;14.68;75.72;99557.00;5063524;28;20036;-69
2021/08/20 01:52:23;;;;;;;14.88;3.28;;;;;;;14.70;75.83;99557.81;5064747;28;20039;-68
2021/08/20 01:54:48;;;;;;;17.05;3.10;;;;;;;14.68;76.01;99554.41;5063729;28;20022;-68
2021/08/20 01:57:13;;;;;;;13.15;3.13;;;;;;;14.69;76.11;99563.09;5064561;28;20425;-68
2021/08/20 01:59:39;;;;;;;10.63;3.05;;;;;;;14.67;76.37;99562.28;5064079;28;20017;-68
2021/08/20 02:02:04;;;;;;;13.77;3.17;;;;;;;14.58;76.07;99547.84;5064200;28;20029;-68
2021/08/20 02:04:30;;;;;;;16.38;3.10;;;;;;;14.65;76.29;99566.75;5064586;28;20031;-68
2021/08/20 02:06:55;;;;;;;22.15;3.20;;;;;;;14.62;76.10;99560.72;5062886;28;20021;-68
2021/08/20 02:09:20;;;;;;;10.50;2.90;;;;;;;14.61;76.13;99566.00;5064410;28;20041;-68
2021/08/20 02:11:46;;;;;;;14.05;3.58;;;;;;;14.59;76.29;99565.22;5063606;28;20031;-68
2021/08/20 02:14:11;;;;;;;9.23;2.47;;;;;;;14.59;76.37;99558.25;5063829;28;20051;-69
2021/08/20 02:16:37;;;;;;;12.88;3.53;;;;;;;14.53;76.61;99553.25;5064102;28;20017;-69
2021/08/20 02:19:02;;;;;;;11.43;2.50;;;;;;;14.52;76.72;99554.16;5063847;28;20033;-68
2021/08/20 02:21:27;;;;;;;15.80;2.90;;;;;;;14.55;76.71;99561.88;5062848;28;20021;-69
2021/08/20 02:23:53;;;;;;;11.55;2.78;;;;;;;14.55;76.80;99561.88;5064260;28;20096;-69
2021/08/20 02:26:18;;;;;;;23.23;3.25;;;;;;;14.54;76.92;99556.69;5064432;28;20024;-69
2021/08/20 02:28:44;;;;;;;11.88;2.83;;;;;;;14.55;76.87;99566.25;5064085;28;20036;-69
2021/08/20 02:31:09;;;;;;;14.88;3.45;;;;;;;14.53;77.10;99566.31;5063851;28;20056;-69
2021/08/20 02:33:34;;;;;;;19.13;4.72;;;;;;;14.53;77.04;99566.31;5064153;28;20023;-69
2021/08/20 02:36:02;;;;;;;30.70;4.20;;;;;;;14.53;77.06;99561.09;5064004;28;20494;-67
2021/08/20 02:38:28;;;;;;;18.33;2.83;;;;;;;14.53;77.25;99562.84;5063800;28;20027;-68
2021/08/20 02:40:53;;;;;;;18.48;3.42;;;;;;;14.51;77.43;99568.13;5064064;28;20100;-68
2021/08/20 02:43:18;;;;;;;14.00;3.03;;;;;;;14.52;77.29;99569.81;5064152;28;20021;-69
2021/08/20 02:45:44;;;;;;;17.30;3.08;;;;;;;14.52;77.69;99568.97;5063847;28;20084;-68
2021/08/20 02:48:09;;;;;;;12.77;3.10;;;;;;;14.50;77.67;99566.44;5063785;28;20013;-69
2021/08/20 02:50:34;;;;;;;12.73;2.97;;;;;;;14.51;77.45;99568.13;5064011;28;20394;-69
2021/08/20 02:53:00;;;;;;;17.45;3.33;;;;;;;14.44;77.71;99561.44;5063724;28;20035;-68
2021/08/20 02:55:25;;;;;;;15.95;2.80;;;;;;;14.47;77.98;99575.22;5063665;28;20025;-68
2021/08/20 02:57:51;;;;;;;22.70;3.55;;;;;;;14.47;77.64;99569.16;5062748;28;20017;-68
2021/08/20 03:00:16;;;;;;;12.55;3.28;;;;;;;14.47;77.83;99571.78;5063233;28;20033;-68
2021/08/20 03:02:42;;;;;;;10.95;2.92;;;;;;;14.46;78.04;99572.66;5062513;28;20043;-67
2021/08/20 03:05:07;;;;;;;17.42;3.58;;;;;;;14.48;77.83;99576.94;5063519;28;20055;-68
2021/08/20 03:07:33;;;;;;;10.80;2.97;;;;;;;14.49;77.58;99580.38;5063352;28;20080;-68
2021/08/20 03:09:58;;;;;;;15.10;3.58;;;;;;;14.49;77.82;99583.00;5063247;28;20049;-69
2021/08/20 03:12:24;;;;;;;11.23;2.85;;;;;;;14.49;78.03;99583.00;5063522;28;20025;-67
2021/08/20 03:14:50;;;;;;;15.60;3.50;;;;;;;14.53;77.71;99581.13;5063529;28;20051;-68
2021/08/20 03:17:16;;;;;;;15.43;2.80;;;;;;;14.52;77.61;99582.03;5063241;28;20017;-67
2021/08/20 03:19:41;;;;;;;12.38;2.80;;;;;;;14.55;77.47;99574.94;5063588;28;20028;-67
2021/08/20 03:22:07;;;;;;;12.07;2.20;;;;;;;14.54;77.70;99581.06;5063254;28;20020;-68
2021/08/20 03:24:32;;;;;;;14.80;2.60;;;;;;;14.55;77.76;99592.38;5063392;28;20513;-68
2021/08/20 03:26:57;;;;;;;11.20;2.05;;;;;;;14.51;77.64;99581.19;5061774;28;20024;-68
2021/08/20 03:29:23;;;;;;;17.83;2.75;;;;;;;14.58;77.59;99589.63;5063339;28;20037;-68
2021/08/20 03:31:48;;;;;;;12.23;3.08;;;;;;;14.58;77.60;99587.88;5063149;28;20013;-68
2021/08/20 03:34:13;;;;;;;7.95;2.58;;;;;;;14.58;77.55;99593.13;5063382;28;20029;-68
2021/08/20 03:36:39;;;;;;;12.55;2.60;;;;;;;14.57;77.54;99598.41;5063179;28;20044;-67
2021/08/20 03:39:04;;;;;;;10.00;2.42;;;;;;;14.55;77.32;99595.84;5063540;28;20027;-68
2021/08/20 03:41:30;;;;;;;10.82;2.92;;;;;;;14.57;77.18;99603.63;5063359;28;20025;-68
2021/08/20 03:43:55;;;;;;;10.98;2.17;;;;;;;14.59;77.28;99601.78;5066617;28;20030;-69
2021/08/20 03:46:21;;;;;;;15.98;2.38;;;;;;;14.60;77.08;99601.72;5067395;28;20115;-69
2021/08/20 03:48:46;;;;;;;10.43;2.30;;;;;;;14.60;76.56;99603.50;5065842;28;20081;-69
2021/08/20 03:51:12;;;;;;;13.80;2.33;;;;;;;14.59;76.87;99601.78;5067023;28;20028;-68
2021/08/20 03:53:38;;;;;;;8.23;2.75;;;;;;;14.59;76.51;99605.25;5067066;28;20021;-68
2021/08/20 03:56:03;;;;;;;9.35;2.08;;;;;;;14.59;76.67;99607.88;5066969;28;20148;-68
2021/08/20 03:58:29;;;;;;;9.93;2.20;;;;;;;14.63;76.63;99600.78;5067039;28;20081;-67
2021/08/20 04:00:54;;;;;;;10.55;2.30;;;;;;;14.67;76.56;99609.31;5067081;28;20096;-67
2021/08/20 04:03:21;;;;;;;7.28;1.80;;;;;;;14.71;76.17;99614.38;5066942;28;20025;-67
2021/08/20 04:05:47;;;;;;;11.20;2.75;;;;;;;14.69;76.43;99608.38;5066818;28;20535;-68
2021/08/20 04:08:13;;;;;;;11.43;3.05;;;;;;;14.77;76.32;99615.03;5066393;28;20048;-68
2021/08/20 04:10:43;;;;;;;8.90;2.10;;;;;;;14.77;76.02;99617.66;5067032;28;20114;-69
2021/08/20 04:13:09;;;;;;;7.55;2.00;;;;;;;14.81;76.12;99607.06;5066770;28;20025;-69
2021/08/20 04:15:38;;;;;;;7.13;2.47;;;;;;;14.92;76.09;99616.25;5066674;28;20107;-69
2021/08/20 04:18:04;;;;;;;9.73;2.03;;;;;;;14.96;75.82;99620.44;5066383;28;20547;-69
2021/08/20 04:20:30;;;;;;;9.40;2.17;;;;;;;15.07;75.50;99625.25;5066682;28;20021;-69
2021/08/20 04:22:55;;;;;;;14.48;2.35;;;;;;;15.14;75.13;99625.84;5066439;28;20029;-68
2021/08/20 04:25:24;;;;;;;8.63;1.88;;;;;;;15.18;74.86;99612.59;5065438;28;20365;-69
2021/08/20 04:27:50;;;;;;;5.22;1.80;;;;;;;15.36;74.66;99621.47;5066356;28;20031;-69
2021/08/20 04:30:19;;;;;;;9.13;1.58;;;;;;;15.65;74.82;99631.63;5066403;28;20044;-69
2021/08/20 04:32:46;;;;;;;8.00;2.22;;;;;;;16.09;74.40;99635.88;5066718;28;20017;-69
2021/08/20 04:35:11;;;;;;;8.27;1.90;;;;;;;16.61;74.52;99631.00;5066524;28;20050;-68
2021/08/20 04:37:37;;;;;;;7.95;1.73;;;;;;;16.82;72.14;99626.50;5066500;28;20020;-70
2021/08/20 04:40:03;;;;;;;10.43;2.13;;;;;;;16.81;71.16;99629.19;5066355;28;20426;-71
2021/08/20 04:42:28;;;;;;;9.82;2.00;;;;;;;16.73;70.05;99640.03;5066305;28;20051;-71
2021/08/20 04:44:54;;;;;;;6.80;1.55;;;;;;;16.61;70.21;99633.63;5066605;28;20033;-71
2021/08/20 04:47:19;;;;;;;7.43;1.50;;;;;;;16.74;70.62;99644.38;5065956;28;20120;-70
2021/08/20 04:49:44;;;;;;;9.25;1.60;;;;;;;16.93;70.24;99643.50;5066242;28;20033;-71
2021/08/20 04:52:10;;;;;;;10.00;2.08;;;;;;;17.16;69.39;99650.28;5066014;28;20029;-71
2021/08/20 04:54:35;;;;;;;9.27;2.17;;;;;;;17.30;68.78;99652.25;5065661;28;20051;-70
2021/08/20 04:57:01;;;;;;;5.70;1.50;;;;;;;17.65;68.91;99640.09;5065907;28;20551;-70
2021/08/20 04:59:26;;;;;;;12.13;1.67;;;;;;;18.17;67.95;99646.22;5066163;28;20025;-70
2021/08/20 05:01:51;;;;;;;4.65;1.35;;;;;;;18.79;65.89;99642.06;5066031;28;20476;-71
2021/08/20 05:04:17;;;;;;;5.43;1.67;;;;;;;19.26;64.88;99650.91;5065970;28;20021;-69
2021/08/20 05:06:43;;;;;;;5.18;1.30;;;;;;;19.66;62.22;99650.38;5065571;28;20086;-69
2021/08/20 05:09:08;;;;;;;6.97;1.50;;;;;;;20.15;60.47;99655.44;5065814;28;20124;-69
2021/08/20 05:11:34;;;;;;;9.45;1.38;;;;;;;20.62;58.45;99655.25;5065739;28;20552;-70
2021/08/20 05:14:00;;;;;;;6.32;1.63;;;;;;;20.89;57.60;99657.94;5065821;28;20090;-72
2021/08/20 05:16:25;;;;;;;6.00;1.42;;;;;;;21.21;56.07;99662.09;5065280;28;20021;-70
2021/08/20 05:18:51;;;;;;;9.43;1.60;;;;;;;21.62;54.50;99673.50;5065511;28;20048;-70
2021/08/20 05:21:17;;;;;;;5.18;1.80;;;;;;;21.86;53.80;99672.84;5065717;28;20021;-70
2021/08/20 05:23:42;;;;;;;7.20;1.48;;;;;;;22.13;52.54;99673.69;5065574;28;20050;-70
2021/08/20 05:26:08;;;;;;;3.95;1.23;;;;;;;22.27;52.13;99672.72;5065431;28;20052;-72
2021/08/20 05:28:33;;;;;;;4.93;1.40;;;;;;;22.61;51.12;99675.66;5063678;28;20029;-72
2021/08/20 05:30:58;;;;;;;7.45;1.40;;;;;;;22.85;50.13;99682.81;5063938;28;20025;-72
2021/08/20 05:33:24;;;;;;;6.85;1.98;;;;;;;23.03;50.28;99691.19;5065288;28;20028;-72
2021/08/20 05:35:49;;;;;;;7.38;1.50;;;;;;;23.46;49.02;99675.81;5065485;28;20025;-72
2021/08/20 05:38:15;;;;;;;6.10;1.92;;;;;;;23.64;47.38;99686.00;5065157;28;20020;-72
2021/08/20 05:40:40;;;;;;;3.05;1.17;;;;;;;23.89;47.26;99692.91;5065310;28;20432;-72
2021/08/20 05:43:06;;;;;;;8.00;1.15;;;;;;;23.91;46.55;99692.81;5065136;28;20025;-73
2021/08/20 05:45:36;;;;;;;5.97;1.60;;;;;;;24.10;46.13;99699.34;5065263;28;20025;-71
2021/08/20 05:48:01;;;;;;;6.22;1.50;;;;;;;24.23;45.29;99699.25;5064770;28;20272;-71
2021/08/20 05:50:27;;;;;;;6.40;1.73;;;;;;;24.19;44.07;99698.66;5064818;28;20132;-71
2021/08/20 05:52:52;;;;;;;4.78;1.75;;;;;;;24.23;44.82;99707.22;5064629;28;20509;-71
2021/08/20 05:55:17;;;;;;;4.80;1.25;;;;;;;24.47;44.44;99711.56;5064865;28;20055;-71
2021/08/20 05:57:43;;;;;;;6.22;1.50;;;;;;;24.62;44.36;99713.00;5064785;28;20396;-71
2021/08/20 06:00:09;;;;;;;4.07;1.20;;;;;;;24.82;44.23;99707.09;5064904;28;20043;-71
2021/08/20 06:02:34;;;;;;;5.53;1.13;;;;;;;25.12;43.25;99713.56;5064794;28;20094;-71
2021/08/20 06:05:00;;;;;;;4.00;1.13;;;;;;;25.52;42.95;99714.75;5063703;28;20029;-71
2021/08/20 06:07:25;;;;;;;7.78;1.33;;;;;;;25.78;41.64;99721.56;5064393;28;20025;-71
2021/08/20 06:09:51;;;;;;;12.43;1.65;;;;;;;25.84;41.67;99716.56;5064578;28;20048;-70
2021/08/20 06:12:16;;;;;;;6.80;1.10;;;;;;;26.08;41.23;99725.25;5064579;28;20115;-71
2021/08/20 06:14:41;;;;;;;6.88;1.25;;;;;;;26.03;40.17;99728.31;5064392;28;20017;-70
2021/08/20 06:17:07;;;;;;;4.15;1.45;;;;;;;25.94;39.84;99734.41;5064470;28;20013;-71
2021/08/20 06:19:32;;;;;;;6.90;1.40;;;;;;;25.72;39.50;99730.91;5064497;28;20044;-71
2021/08/20 06:21:58;;;;;;;6.57;1.48;;;;;;;25.35;41.08;99740.06;5064338;28;20039;-72
2021/08/20 06:24:24;;;;;;;6.72;1.70;;;;;;;25.29;41.03;99745.88;5064560;28;20036;-72
2021/08/20 06:26:50;;;;;;;6.15;1.50;;;;;;;25.28;40.51;99752.16;5064121;28;20381;-71
2021/08/20 06:29:19;;;;;;;3.80;1.30;;;;;;;25.08;40.13;99747.47;5062810;28;20078;-72
2021/08/20 06:31:44;;;;;;;4.97;1.10;;;;;;;24.91;40.67;99759.47;5064165;28;20021;-71
2021/08/20 06:34:10;;;;;;;3.75;1.30;;;;;;;24.88;41.20;99765.00;5064186;28;20031;-72
2021/08/20 06:36:35;;;;;;;3.50;0.90;;;;;;;25.02;41.30;99768.41;5064278;28;20055;-71
2021/08/20 06:39:01;;;;;;;6.35;1.55;;;;;;;24.96;40.40;99765.25;5063858;28;20032;-71
2021/08/20 06:41:26;;;;;;;5.97;1.23;;;;;;;24.61;40.65;99769.72;5064094;28;20047;-72
2021/08/20 06:43:52;;;;;;;7.20;1.10;;;;;;;24.33;41.31;99773.66;5064021;28;20032;-72
2021/08/20 06:46:17;;;;;;;4.97;1.15;;;;;;;24.00;41.72;99774.28;5064004;28;20059;-72
2021/08/20 06:48:42;;;;;;;5.60;1.00;;;;;;;23.72;42.48;99762.25;5063818;28;20089;-71
2021/08/20 06:51:11;;;;;;;162.68;58.10;;;;;;;23.55;42.67;99777.56;5063690;28;20024;-72
2021/08/20 06:53:37;;;;;;;12.15;4.53;;;;;;;23.43;43.60;99763.44;5063609;28;20025;-72
2021/08/20 06:56:02;;;;;;;5.18;1.42;;;;;;;23.51;43.41;99765.53;5062400;28;20537;-71
2021/08/20 06:58:28;;;;;;;9.30;1.55;;;;;;;23.77;42.93;99782.13;5063754;28;20043;-71
2021/08/20 07:00:53;;;;;;;3.25;1.10;;;;;;;23.99;42.72;99775.22;5063919;28;20032;-71
2021/08/20 07:03:18;;;;;;;7.25;1.63;;;;;;;24.10;41.79;99781.53;5063636;28;20024;-72
2021/08/20 07:05:44;;;;;;;6.25;1.52;;;;;;;24.11;42.50;99784.06;5064028;28;20055;-72
2021/08/20 07:08:09;;;;;;;6.20;1.55;;;;;;;24.39;41.74;99789.91;5063101;28;20040;-71
2021/08/20 07:10:34;;;;;;;9.32;1.10;;;;;;;24.54;41.12;99783.56;5063736;28;20033;-72
2021/08/20 07:13:00;;;;;;;4.82;1.60;;;;;;;24.48;40.62;99787.53;5063477;28;20344;-71
2021/08/20 07:15:25;;;;;;;3.72;0.93;;;;;;;24.60;39.95;99793.72;5063641;28;20470;-71
2021/08/20 07:17:50;;;;;;;4.35;0.93;;;;;;;24.64;39.99;99789.84;5061939;28;20021;-72
2021/08/20 07:20:16;;;;;;;4.97;1.10;;;;;;;24.69;39.96;99795.63;5063423;28;20017;-72
2021/08/20 07:22:41;;;;;;;3.75;1.10;;;;;;;24.83;39.77;99801.66;5063190;28;20047;-71
2021/08/20 07:25:07;;;;;;;4.55;1.10;;;;;;;25.19;40.07;99797.06;5062955;28;20383;-71
2021/08/20 07:27:32;;;;;;;2.90;0.75;;;;;;;25.77;39.05;99791.66;5062960;28;20037;-71
2021/08/20 07:29:58;;;;;;;5.22;1.35;;;;;;;26.05;37.96;99792.00;5063100;28;20033;-72
2021/08/20 07:32:23;;;;;;;6.25;1.13;;;;;;;25.78;37.35;99798.66;5061735;28;20053;-72
2021/08/20 07:34:48;;;;;;;4.20;1.05;;;;;;;25.60;37.35;99799.16;5063193;28;20021;-71
2021/08/20 07:37:14;;;;;;;5.15;0.88;;;;;;;25.58;38.30;99814.38;5062945;28;20470;-71
2021/08/20 07:39:39;;;;;;;4.28;1.15;;;;;;;25.95;37.70;99811.38;5063487;28;20025;-71
2021/08/20 07:42:06;;;;;;;3.55;1.13;;;;;;;25.95;36.86;99811.38;5063252;28;20049;-72
2021/08/20 07:44:32;;;;;;;6.20;1.45;;;;;;;25.66;37.09;99827.91;5063224;28;20029;-72
2021/08/20 07:46:58;;;;;;;2.25;0.85;;;;;;;25.61;37.79;99824.75;5063198;28;20416;-71
2021/08/20 07:49:24;;;;;;;4.50;0.80;;;;;;;25.79;37.94;99825.09;5063052;28;20035;-72
2021/08/20 07:51:49;;;;;;;9.00;1.38;;;;;;;26.06;37.53;99822.94;5063116;28;20064;-72
2021/08/20 07:54:15;;;;;;;6.25;1.23;;;;;;;26.24;37.21;99839.16;5063541;28;20192;-71
2021/08/20 07:56:40;;;;;;;6.32;1.38;;;;;;;26.05;36.81;99832.75;5063171;28;20047;-72
2021/08/20 07:59:06;;;;;;;3.65;0.90;;;;;;;25.71;36.90;99846.16;5061766;28;20031;-71
2021/08/20 08:01:31;;;;;;;4.63;0.90;;;;;;;25.40;37.88;99843.31;5063132;28;20045;-71
2021/08/20 08:03:59;;;;;;;3.72;0.77;;;;;;;25.46;36.86;99848.13;5061912;28;20066;-70
2021/08/20 08:06:25;;;;;;;3.63;1.05;;;;;;;25.20;37.35;99845.72;5063165;28;20059;-70
2021/08/20 08:08:51;;;;;;;2.72;0.95;;;;;;;25.08;37.59;99850.22;5062826;28;20037;-70
2021/08/20 08:11:17;;;;;;;3.53;0.80;;;;;;;25.07;37.54;99852.03;5063282;28;20039;-70
2021/08/20 08:13:43;;;;;;;3.90;0.77;;;;;;;25.29;37.08;99841.50;5063071;28;20029;-71
2021/08/20 08:16:08;;;;;;;2.05;0.85;;;;;;;25.51;36.35;99853.91;5063052;28;20080;-71
2021/08/20 08:18:34;;;;;;;2.55;0.80;;;;;;;25.42;36.54;99859.94;5063025;28;20043;-72
2021/08/20 08:21:00;;;;;;;3.78;0.80;;;;;;;25.23;36.51;99864.94;5063029;28;20032;-72
2021/08/20 08:23:25;;;;;;;3.65;0.63;;;;;;;24.73;36.71;99857.25;5063079;28;20028;-72
2021/08/20 08:25:51;;;;;;;3.28;0.70;;;;;;;24.32;36.75;99862.97;5061456;28;20029;-72
2021/08/20 08:28:16;;;;;;;2.70;0.82;;;;;;;23.65;37.97;99865.19;5061996;28;20067;-72
2021/08/20 08:30:42;;;;;;;3.13;0.90;;;;;;;23.39;38.81;99870.53;5066591;28;20044;-71
2021/08/20 08:33:10;;;;;;;3.75;0.82;;;;;;;23.48;39.18;99883.13;5066379;28;20025;-71
2021/08/20 08:35:35;;;;;;;2.67;0.85;;;;;;;24.04;38.58;99877.44;5066538;28;20021;-71
2021/08/20 08:38:27;;;;;;;3.42;1.00;;;;;;;24.64;37.43;99885.38;5064801;28;20106;-70
2021/08/20 08:40:53;;;;;;;1.65;1.10;;;;;;;24.47;37.05;99878.72;5064217;28;20044;-71
2021/08/20 08:43:18;;;;;;;7.53;1.02;;;;;;;23.74;37.80;99879.56;5064836;28;20025;-71
2021/08/20 08:45:44;;;;;;;7.70;0.85;;;;;;;23.23;38.65;99889.28;5066212;28;20033;-71
2021/08/20 08:48:11;;;;;;;3.08;0.95;;;;;;;22.53;40.10;99881.63;5066036;28;20022;-72
2021/08/20 08:50:38;;;;;;;3.22;1.13;;;;;;;22.03;41.26;99883.09;5066384;28;20029;-72
2021/08/20 08:53:04;;;;;;;3.78;0.95;;;;;;;22.19;41.70;99890.00;5066239;28;20186;-72
2021/08/20 08:55:30;;;;;;;1.80;0.90;;;;;;;22.88;40.47;99890.78;5064640;28;20092;-72
2021/08/20 08:57:56;;;;;;;2.70;1.00;;;;;;;23.05;40.11;99891.44;5065943;28;20025;-72
2021/08/20 09:00:36;;;;;;;3.95;0.90;;;;;;;23.82;39.59;99892.28;5066076;28;20047;-71
2021/08/20 09:03:02;;;;;;;6.65;1.13;;;;;;;24.85;37.86;99890.84;5065965;28;20027;-71
2021/08/20 09:05:45;;;;;;;3.03;1.00;;;;;;;25.72;35.91;99888.56;5066106;28;20024;-72
2021/08/20 09:08:13;;;;;;;3.92;0.90;;;;;;;26.22;35.18;99895.16;5065368;28;20029;-71
2021/08/20 09:10:54;;;;;;;6.43;0.98;;;;;;;26.30;34.15;99901.66;5066063;28;20048;-72
2021/08/20 09:13:21;;;;;;;2.85;0.98;;;;;;;25.50;35.23;99902.69;5065539;28;20473;-72
2021/08/20 09:15:47;;;;;;;4.68;0.93;;;;;;;25.44;36.52;99909.34;5065820;28;20488;-71
2021/08/20 09:18:22;;;;;;;10.43;1.17;;;;;;;26.17;34.73;99910.66;5064334;28;20614;-71
2021/08/20 09:20:50;;;;;;;5.82;0.93;;;;;;;26.48;34.38;99897.50;5065004;28;20017;-72
2021/08/20 09:23:25;;;;;;;2.58;1.00;;;;;;;26.56;34.44;99906.63;5065320;28;20032;-72
2021/08/20 09:25:52;;;;;;;4.88;0.85;;;;;;;26.94;34.20;99914.97;5065563;28;20017;-72
2021/08/20 09:28:35;;;;;;;4.45;0.93;;;;;;;27.50;32.73;99907.53;5065061;28;20059;-72
2021/08/20 09:31:12;;;;;;;3.13;0.80;;;;;;;27.93;32.59;99910.03;5065283;28;20094;-72
2021/08/20 09:33:46;;;;;;;3.50;0.77;;;;;;;27.84;30.62;99911.72;5065571;28;20059;-72
2021/08/20 09:36:22;;;;;;;8.65;1.48;;;;;;;27.21;31.83;99914.44;5064107;28;20393;-72
2021/08/20 09:38:56;;;;;;;7.82;1.23;;;;;;;27.44;32.00;99911.59;5064989;28;20114;-72
2021/08/20 09:41:45;;;;;;;3.20;1.02;;;;;;;27.31;31.71;99910.97;5064997;28;20079;-71
2021/08/20 09:44:19;;;;;;;5.55;0.82;;;;;;;27.53;31.88;99917.06;5064890;28;20036;-70
2021/08/20 09:46:46;;;;;;;1.88;0.70;;;;;;;27.34;31.68;99918.69;5064734;28;20025;-70
2021/08/20 09:49:16;;;;;;;3.03;1.00;;;;;;;27.57;31.39;99923.84;5064057;28;20029;-72
2021/08/20 09:51:46;;;;;;;3.25;0.88;;;;;;;27.58;30.29;99920.19;5064917;28;20027;-71
2021/08/20 09:54:15;;;;;;;1.87;0.90;;;;;;;27.40;30.82;99927.97;5065178;28;20021;-71
2021/08/20 09:56:42;;;;;;;1.85;0.77;;;;;;;27.86;30.29;99936.41;5064565;28;20020;-72
2021/08/20 09:59:09;;;;;;;2.22;0.60;;;;;;;28.44;29.69;99916.09;5064635;28;20025;-71
2021/08/20 10:01:36;;;;;;;5.15;0.98;;;;;;;28.49;29.50;99928.19;5064787;28;20021;-71
2021/08/20 10:04:06;;;;;;;1.17;0.45;;;;;;;28.48;30.20;99934.50;5064792;28;20453;-71
2021/08/20 10:06:35;;;;;;;1.95;0.73;;;;;;;29.13;29.67;99930.31;5064793;28;20025;-72
2021/08/20 10:09:06;;;;;;;5.63;0.90;;;;;;;29.65;28.60;99929.00;5064132;28;20041;-72
2021/08/20 10:11:34;;;;;;;4.40;0.80;;;;;;;29.59;28.21;99940.25;5064862;28;20055;-71
2021/08/20 10:14:01;;;;;;;3.33;0.73;;;;;;;29.48;28.52;99944.81;5064424;28;20021;-71
2021/08/20 10:16:30;;;;;;;3.17;0.90;;;;;;;28.99;28.97;99937.81;5064517;28;20029;-72
2021/08/20 10:18:56;;;;;;;2.28;0.80;;;;;;;28.28;29.96;99942.47;5063276;28;20017;-72
2021/08/20 10:21:22;;;;;;;4.43;0.70;;;;;;;28.16;30.26;99941.78;5063981;28;20031;-72
2021/08/20 10:23:48;;;;;;;4.15;0.98;;;;;;;27.37;31.50;99944.22;5064304;28;20084;-72
2021/08/20 10:26:14;;;;;;;5.00;0.88;;;;;;;26.31;33.39;99952.09;5064006;28;20025;-72
2021/08/20 10:28:41;;;;;;;5.50;1.08;;;;;;;25.46;34.35;99955.22;5064060;28;20087;-71
2021/08/20 10:31:09;;;;;;;2.60;0.73;;;;;;;25.48;35.11;99958.63;5064193;28;20020;-71
2021/08/20 10:33:37;;;;;;;3.05;1.00;;;;;;;25.63;35.00;99953.09;5064172;28;20028;-71
2021/08/20 10:36:04;;;;;;;3.97;0.90;;;;;;;25.62;34.96;99959.38;5064200;28;20508;-71
2021/08/20 10:38:38;;;;;;;1.85;1.08;;;;;;;26.06;33.61;99959.41;5063950;28;20040;-71
2021/08/20 10:41:22;;;;;;;2.97;0.85;;;;;;;26.07;33.84;99963.75;5064055;28;20043;-72
2021/08/20 10:44:00;;;;;;;2.22;0.65;;;;;;;26.68;33.51;99958.84;5063948;28;20460;-72
2021/08/20 10:46:34;;;;;;;2.72;0.90;;;;;;;27.26;32.18;99958.50;5064117;28;20100;-71
2021/08/20 10:49:12;;;;;;;6.03;1.10;;;;;;;27.63;31.09;99973.09;5063730;28;20090;-72
2021/08/20 10:51:50;;;;;;;4.28;0.77;;;;;;;28.06;30.44;99968.47;5063452;28;20024;-72
2021/08/20 10:54:16;;;;;;;4.20;1.05;;;;;;;28.23;29.56;99972.25;5063783;28;20027;-71
2021/08/20 10:56:42;;;;;;;6.03;1.30;;;;;;;28.24;29.55;99970.44;5062285;28;20026;-71
2021/08/20 10:59:07;;;;;;;2.58;0.63;;;;;;;28.08;30.06;99975.31;5063571;28;20125;-72
2021/08/20 11:01:33;;;;;;;4.43;1.00;;;;;;;27.95;29.98;99982.75;5063586;28;20033;-71
2021/08/20 11:03:59;;;;;;;4.00;1.00;;;;;;;27.74;29.84;99985.50;5062360;28;20028;-71
2021/08/20 11:06:50;;;;;;;3.75;1.00;;;;;;;26.58;31.10;99979.22;5063657;28;20021;-70
2021/08/20 11:09:26;;;;;;;2.92;0.95;;;;;;;25.96;31.88;99999.19;5058223;28;20123;-71
2021/08/20 11:11:52;;;;;;;4.20;0.80;;;;;;;25.83;32.41;99986.03;5063547;28;20040;-71
2021/08/20 11:14:23;;;;;;;2.03;0.70;;;;;;;26.09;31.27;99987.56;5063528;28;20036;-71
2021/08/20 11:16:49;;;;;;;6.15;0.93;;;;;;;25.99;31.23;99998.13;5063286;28;20048;-71
2021/08/20 11:19:48;;;;;;;2.45;0.90;;;;;;;25.74;31.54;100000.94;5063416;28;20029;-71
2021/08/20 11:22:21;;;;;;;4.55;0.90;;;;;;;25.56;32.41;99999.72;5063148;28;20029;-72
2021/08/20 11:25:15;;;;;;;4.07;0.80;;;;;;;25.54;32.85;100002.47;5063315;28;20025;-71
2021/08/20 11:27:54;;;;;;;3.25;0.88;;;;;;;25.09;34.06;100004.13;5044006;28;20071;-71